Time;durP1;ratioP1;P1;durP2;ratioP2;P2;SDS_P1;SDS_P2;PMS_P1;PMS_P2;Temp;Humidity;BMP_temperature;BMP_pressure;BME280_temperature;BME280_humidity;BME280_pressure;Samples;Min_cycle;Max_cycle;Signal;HPM_P1;HPM_P2
2024/01/10 00:00:49;;;;;;;15.70;6.95;;;;;;;-144.32;100.00;68061.97;10404112;28;20059;-80
2024/01/10 00:06:48;;;;;;;13.35;6.40;;;;;;;-144.32;100.00;68061.97;10401700;28;20515;-80
2024/01/10 00:12:47;;;;;;;14.07;6.93;;;;;;;-144.32;100.00;68061.97;10400062;28;20058;-81
2024/01/10 00:18:46;;;;;;;13.85;6.55;;;;;;;-144.32;100.00;68061.97;10388065;28;20483;-79
2024/01/10 00:24:45;;;;;;;14.02;6.78;;;;;;;-144.32;100.00;68061.97;10395819;28;20045;-82
2024/01/10 00:30:47;;;;;;;10.40;6.53;;;;;;;-144.32;100.00;68061.97;10423094;28;20150;-77
2024/01/10 00:36:46;;;;;;;13.13;6.07;;;;;;;-144.32;100.00;68061.97;10410324;28;20161;-78
2024/01/10 00:42:45;;;;;;;14.18;7.30;;;;;;;-144.32;100.00;68061.97;10396241;28;20461;-76
2024/01/10 00:48:44;;;;;;;15.75;6.90;;;;;;;-144.32;100.00;68061.97;10414740;28;20041;-83
2024/01/10 00:54:45;;;;;;;15.35;6.95;;;;;;;-144.32;100.00;68061.97;10406230;28;20521;-80
2024/01/10 01:00:44;;;;;;;12.50;6.85;;;;;;;-144.32;100.00;68061.97;10394269;28;20064;-77
2024/01/10 01:06:44;;;;;;;12.80;7.65;;;;;;;-144.32;100.00;68061.97;10403181;28;20071;-78
2024/01/10 01:12:43;;;;;;;12.35;6.97;;;;;;;-144.32;100.00;68061.97;10410096;28;20077;-80
2024/01/10 01:18:45;;;;;;;14.48;6.88;;;;;;;-144.32;100.00;68061.97;10394313;28;20053;-77
2024/01/10 01:24:44;;;;;;;12.63;6.97;;;;;;;-144.32;100.00;68061.97;10409501;28;20050;-80
2024/01/10 01:30:44;;;;;;;14.50;7.70;;;;;;;-144.32;100.00;68061.97;10406910;28;20041;-83
2024/01/10 01:36:43;;;;;;;16.67;7.57;;;;;;;-144.32;100.00;68061.97;10399914;28;20120;-79
2024/01/10 01:42:43;;;;;;;12.95;6.70;;;;;;;-144.32;100.00;68061.97;10388309;28;20060;-81
2024/01/10 01:48:43;;;;;;;14.77;7.15;;;;;;;-144.32;100.00;68061.97;10402103;28;20084;-79
2024/01/10 01:54:43;;;;;;;14.95;7.88;;;;;;;-144.32;100.00;68061.97;10397809;28;20056;-78
2024/01/10 02:00:43;;;;;;;15.00;7.18;;;;;;;-144.32;100.00;68061.97;10388074;28;20065;-77
2024/01/10 02:06:42;;;;;;;13.30;6.97;;;;;;;-144.32;100.00;68061.97;10406469;28;20677;-79
2024/01/10 02:12:42;;;;;;;12.57;6.70;;;;;;;-144.32;100.00;68061.97;10387887;28;20076;-77
2024/01/10 02:18:41;;;;;;;13.45;6.75;;;;;;;-144.32;100.00;68061.97;10395929;28;20495;-77
2024/01/10 02:24:41;;;;;;;10.05;6.30;;;;;;;-144.32;100.00;68061.97;10397777;28;20061;-84
2024/01/10 02:30:41;;;;;;;12.30;6.97;;;;;;;-144.32;100.00;68061.97;10413658;28;20059;-80
2024/01/10 02:36:41;;;;;;;13.02;6.47;;;;;;;-144.32;100.00;68061.97;10394730;28;20096;-85
2024/01/10 02:42:40;;;;;;;13.80;6.40;;;;;;;-144.32;100.00;68061.97;10399603;28;20042;-78
2024/01/10 02:48:40;;;;;;;10.68;7.18;;;;;;;-144.32;100.00;68061.97;10389605;28;20053;-80
2024/01/10 02:54:39;;;;;;;10.80;6.53;;;;;;;-144.32;100.00;68061.97;10405725;28;20053;-82
2024/01/10 03:00:39;;;;;;;12.63;6.05;;;;;;;-144.32;100.00;68061.97;10388623;28;20050;-81
2024/01/10 03:06:38;;;;;;;13.30;6.78;;;;;;;-144.32;100.00;68061.97;10346995;28;20058;-83
2024/01/10 03:12:37;;;;;;;10.63;6.22;;;;;;;-144.32;100.00;68061.97;10354620;28;20792;-82
2024/01/10 03:18:36;;;;;;;13.80;7.05;;;;;;;-144.32;100.00;68061.97;10337599;28;20050;-81
2024/01/10 03:24:35;;;;;;;16.70;6.90;;;;;;;-144.32;100.00;68061.97;10353238;28;20073;-78
2024/01/10 03:30:34;;;;;;;10.27;6.32;;;;;;;-144.32;100.00;68061.97;10368897;28;20588;-80
2024/01/10 03:36:33;;;;;;;14.15;6.57;;;;;;;-144.32;100.00;68061.97;10347410;28;20287;-80
2024/01/10 03:42:33;;;;;;;13.15;6.65;;;;;;;-144.32;100.00;68061.97;10365988;28;20546;-77
2024/01/10 03:48:32;;;;;;;16.52;7.05;;;;;;;-144.32;100.00;68061.97;10363982;28;20134;-79
2024/01/10 03:54:31;;;;;;;15.32;6.63;;;;;;;-144.32;100.00;68061.97;10356833;28;20046;-79
2024/01/10 04:00:30;;;;;;;14.90;6.90;;;;;;;-144.32;100.00;68061.97;10362482;28;20061;-86
2024/01/10 04:06:30;;;;;;;12.20;6.32;;;;;;;-144.32;100.00;68061.97;10360320;28;20654;-79
2024/01/10 04:12:29;;;;;;;12.65;6.57;;;;;;;-144.32;100.00;68061.97;10360846;28;20667;-81
2024/01/10 04:18:29;;;;;;;13.25;6.20;;;;;;;-144.32;100.00;68061.97;10358394;28;20498;-83
2024/01/10 04:24:28;;;;;;;12.77;5.97;;;;;;;-144.32;100.00;68061.97;10365836;28;20064;-81
2024/01/10 04:30:27;;;;;;;13.93;6.90;;;;;;;-144.32;100.00;68061.97;10407847;28;20064;-78
2024/01/10 04:36:26;;;;;;;12.93;7.07;;;;;;;-144.32;100.00;68061.97;10419993;28;20156;-80
2024/01/10 04:42:25;;;;;;;15.32;6.72;;;;;;;-144.32;100.00;68061.97;10403406;28;20072;-79
2024/01/10 04:48:24;;;;;;;10.15;6.70;;;;;;;-144.32;100.00;68061.97;10373621;28;20076;-79
2024/01/10 04:54:24;;;;;;;14.68;7.30;;;;;;;-144.32;100.00;68061.97;10416443;28;20068;-78
2024/01/10 05:00:23;;;;;;;13.43;7.10;;;;;;;-144.32;100.00;68061.97;10403251;28;20382;-79
2024/01/10 05:06:23;;;;;;;16.42;8.48;;;;;;;-144.32;100.00;68061.97;10427685;28;20490;-78
2024/01/10 05:12:24;;;;;;;14.93;7.43;;;;;;;-144.32;100.00;68061.97;10353582;28;20103;-80
2024/01/10 05:18:24;;;;;;;15.00;6.70;;;;;;;-144.32;100.00;68061.97;10402307;28;20065;-77
2024/01/10 05:24:23;;;;;;;18.58;8.18;;;;;;;-144.32;100.00;68061.97;10406780;28;20061;-78
2024/01/10 05:30:21;;;;;;;15.38;7.50;;;;;;;-144.32;100.00;68061.97;10377523;28;20056;-77
2024/01/10 05:36:23;;;;;;;13.30;7.57;;;;;;;-144.32;100.00;68061.97;10378015;28;20559;-81
2024/01/10 05:42:22;;;;;;;14.40;7.90;;;;;;;-144.32;100.00;68061.97;10404019;28;20057;-79
2024/01/10 05:48:21;;;;;;;12.55;6.82;;;;;;;-144.32;100.00;68061.97;10396001;28;20144;-80
2024/01/10 05:54:22;;;;;;;12.13;6.80;;;;;;;-144.32;100.00;68061.97;10364903;28;20049;-79
2024/01/10 06:00:21;;;;;;;15.27;7.35;;;;;;;-144.32;100.00;68061.97;10397042;28;20048;-77
2024/01/10 06:06:20;;;;;;;13.55;7.40;;;;;;;-144.32;100.00;68061.97;10374173;28;20080;-84
2024/01/10 06:12:21;;;;;;;17.20;7.50;;;;;;;-144.32;100.00;68061.97;10384047;28;20060;-81
2024/01/10 06:18:20;;;;;;;14.60;7.68;;;;;;;-144.32;100.00;68061.97;10360071;28;20556;-82
2024/01/10 06:24:20;;;;;;;14.05;7.13;;;;;;;-144.32;100.00;68061.97;10358061;28;20065;-80
2024/01/10 06:30:20;;;;;;;12.43;7.60;;;;;;;-144.32;100.00;68061.97;10376369;28;20162;-82
2024/01/10 06:36:19;;;;;;;16.17;7.60;;;;;;;-144.32;100.00;68061.97;10375820;28;20618;-79
2024/01/10 06:42:20;;;;;;;17.17;8.05;;;;;;;-144.32;100.00;68061.97;10379044;28;20057;-79
2024/01/10 06:48:20;;;;;;;14.00;7.45;;;;;;;-144.32;100.00;68061.97;10352610;28;20069;-77
2024/01/10 06:54:19;;;;;;;16.63;8.32;;;;;;;-144.32;100.00;68061.97;10354335;28;20703;-74
2024/01/10 07:00:20;;;;;;;14.38;7.90;;;;;;;-144.32;100.00;68061.97;10351281;28;20085;-78
2024/01/10 07:06:19;;;;;;;14.20;8.48;;;;;;;-144.32;100.00;68061.97;10345658;28;20201;-78
2024/01/10 07:12:18;;;;;;;17.13;9.27;;;;;;;-144.32;100.00;68061.97;10351291;28;20451;-77
2024/01/10 07:18:18;;;;;;;19.52;9.25;;;;;;;-144.32;100.00;68061.97;10350640;28;20073;-82
2024/01/10 07:24:17;;;;;;;18.85;9.32;;;;;;;-144.32;100.00;68061.97;10350367;28;20053;-77
2024/01/10 07:30:16;;;;;;;18.75;10.63;;;;;;;-144.32;100.00;68061.97;10355872;28;20096;-79
2024/01/10 07:36:15;;;;;;;26.75;13.85;;;;;;;-144.32;100.00;68061.97;10350852;28;20050;-77
2024/01/10 07:42:14;;;;;;;28.63;13.85;;;;;;;-144.32;100.00;68061.97;10405264;28;20053;-79
2024/01/10 07:48:13;;;;;;;27.77;13.93;;;;;;;-144.32;100.00;68061.97;10414481;28;20057;-78
2024/01/10 07:54:12;;;;;;;27.75;13.20;;;;;;;-144.32;100.00;68061.97;10372700;28;20058;-78
2024/01/10 08:00:13;;;;;;;23.98;12.32;;;;;;;-144.32;100.00;68061.97;10361555;28;20530;-78
2024/01/10 08:06:13;;;;;;;20.42;11.43;;;;;;;-144.32;100.00;68061.97;10354060;28;20506;-78
2024/01/10 08:12:13;;;;;;;24.25;13.05;;;;;;;-144.32;100.00;68061.97;10356414;28;20064;-83
2024/01/10 08:18:14;;;;;;;26.33;13.43;;;;;;;-144.32;100.00;68061.97;10343245;28;20107;-78
2024/01/10 08:24:14;;;;;;;21.65;12.40;;;;;;;-144.32;100.00;68061.97;10383559;28;20079;-75
2024/01/10 08:30:16;;;;;;;23.95;10.68;;;;;;;-144.32;100.00;68061.97;10356982;28;20058;-76
2024/01/10 08:36:16;;;;;;;24.90;13.65;;;;;;;-144.32;100.00;68061.97;10354716;28;20054;-78
2024/01/10 08:42:16;;;;;;;19.33;11.25;;;;;;;-144.32;100.00;68061.97;10353135;28;20140;-77
2024/01/10 08:48:15;;;;;;;20.80;11.52;;;;;;;-144.32;100.00;68061.97;10361410;28;20045;-76
2024/01/10 08:54:16;;;;;;;20.10;10.52;;;;;;;-144.32;100.00;68061.97;10342338;28;20505;-75
2024/01/10 09:00:16;;;;;;;17.23;10.05;;;;;;;-144.32;100.00;68061.97;10361957;28;20050;-77
2024/01/10 09:06:15;;;;;;;16.98;10.55;;;;;;;-144.32;100.00;68061.97;10359442;28;20061;-78
2024/01/10 09:12:14;;;;;;;18.83;10.35;;;;;;;-144.32;100.00;68061.97;10358754;28;20060;-79
2024/01/10 09:18:13;;;;;;;21.20;10.82;;;;;;;-144.32;100.00;68061.97;10352665;28;20065;-80
2024/01/10 09:24:14;;;;;;;22.83;11.07;;;;;;;-144.32;100.00;68061.97;10359976;28;20061;-77
2024/01/10 09:30:16;;;;;;;20.75;10.05;;;;;;;-144.32;100.00;68061.97;10348949;28;20136;-79
2024/01/10 09:36:15;;;;;;;20.83;10.82;;;;;;;-144.32;100.00;68061.97;10355465;28;20431;-78
2024/01/10 09:42:14;;;;;;;19.63;11.18;;;;;;;-144.32;100.00;68061.97;10355868;28;20062;-77
2024/01/10 09:48:17;;;;;;;20.85;10.50;;;;;;;-144.32;100.00;68061.97;10355206;28;20050;-80
2024/01/10 09:54:26;;;;;;;19.25;10.82;;;;;;;-144.32;100.00;68061.97;10351268;28;20060;-77
2024/01/10 10:00:26;;;;;;;20.63;10.93;;;;;;;-144.32;100.00;68061.97;10353534;28;20065;-77
2024/01/10 10:06:25;;;;;;;20.08;10.65;;;;;;;-144.32;100.00;68061.97;10353595;28;20053;-75
2024/01/10 10:12:43;;;;;;;19.30;11.05;;;;;;;-144.32;100.00;68061.97;10348687;28;20130;-77
2024/01/10 10:18:45;;;;;;;22.00;10.85;;;;;;;-144.32;100.00;68061.97;10348617;28;20054;-82
2024/01/10 10:24:56;;;;;;;18.73;10.98;;;;;;;-144.32;100.00;68061.97;10351925;28;20057;-76
2024/01/10 10:30:55;;;;;;;21.05;10.73;;;;;;;-144.32;100.00;68061.97;10351432;28;20467;-76
2024/01/10 10:36:54;;;;;;;21.02;10.77;;;;;;;-144.32;100.00;68061.97;10346163;28;20054;-77
2024/01/10 10:42:58;;;;;;;26.13;12.70;;;;;;;-144.32;100.00;68061.97;10338740;28;20062;-77
2024/01/10 10:49:00;;;;;;;19.92;11.00;;;;;;;-144.32;100.00;68061.97;10346537;28;20084;-75
2024/01/10 10:55:02;;;;;;;22.90;11.98;;;;;;;-144.32;100.00;68061.97;10326266;28;20057;-78
2024/01/10 11:01:07;;;;;;;21.48;10.80;;;;;;;-144.32;100.00;68061.97;10352771;28;20085;-78
2024/01/10 11:07:09;;;;;;;20.38;10.63;;;;;;;-144.32;100.00;68061.97;10346191;28;21182;-81
2024/01/10 11:13:30;;;;;;;25.50;12.52;;;;;;;-144.32;100.00;68061.97;10349637;28;21068;-81
2024/01/10 11:20:05;;;;;;;21.25;11.45;;;;;;;-144.32;100.00;68061.97;10356173;28;20107;-83
2024/01/10 11:26:05;;;;;;;20.98;10.85;;;;;;;-144.32;100.00;68061.97;10357507;28;20754;-76
2024/01/10 11:32:12;;;;;;;19.13;11.02;;;;;;;-144.32;100.00;68061.97;10381119;28;20053;-81
2024/01/10 11:38:11;;;;;;;20.67;10.45;;;;;;;-144.32;100.00;68061.97;10366232;28;20049;-78
2024/01/10 11:44:22;;;;;;;20.73;11.57;;;;;;;-144.32;100.00;68061.97;10354970;28;20046;-79
2024/01/10 11:50:23;;;;;;;21.85;11.52;;;;;;;-144.32;100.00;68061.97;10356628;28;20207;-77
2024/01/10 11:57:01;;;;;;;20.38;11.50;;;;;;;-144.32;100.00;68061.97;10354368;28;20742;-78
2024/01/10 12:03:00;;;;;;;;;;;;;;;-144.32;100.00;68061.97;10268925;28;21167;-78
2024/01/10 12:09:13;;;;;;;24.00;12.02;;;;;;;-144.32;100.00;68061.97;10358227;28;19925;-79
2024/01/10 12:15:14;;;;;;;18.55;11.68;;;;;;;-144.32;100.00;68061.97;10350691;28;20123;-75
2024/01/10 12:21:13;;;;;;;18.38;10.45;;;;;;;-144.32;100.00;68061.97;10362686;28;20133;-77
2024/01/10 12:27:12;;;;;;;17.67;10.88;;;;;;;-144.32;100.00;68061.97;10370938;28;20145;-82
2024/01/10 12:33:11;;;;;;;19.63;12.25;;;;;;;-144.32;100.00;68061.97;10355016;28;20518;-77
2024/01/10 12:39:11;;;;;;;20.08;10.77;;;;;;;-144.32;100.00;68061.97;10351260;28;20049;-77
2024/01/10 12:45:21;;;;;;;21.30;12.15;;;;;;;-144.32;100.00;68061.97;10352094;28;20085;-78
2024/01/10 12:51:20;;;;;;;20.73;10.63;;;;;;;-144.32;100.00;68061.97;10353384;28;20065;-80
2024/01/10 12:57:23;;;;;;;19.38;10.48;;;;;;;-144.32;100.00;68061.97;10347891;28;20068;-77
2024/01/10 13:03:23;;;;;;;17.95;11.20;;;;;;;-144.32;100.00;68061.97;10365775;28;20057;-77
2024/01/10 13:09:22;;;;;;;16.23;10.85;;;;;;;-144.32;100.00;68061.97;10385670;28;20128;-77
2024/01/10 13:15:21;;;;;;;15.55;10.02;;;;;;;-144.32;100.00;68061.97;10367959;28;20050;-78
2024/01/10 13:21:20;;;;;;;19.23;10.93;;;;;;;-144.32;100.00;68061.97;10351637;28;20042;-79
2024/01/10 13:27:19;;;;;;;19.98;10.88;;;;;;;-144.32;100.00;68061.97;10354600;28;20061;-77
2024/01/10 13:33:20;;;;;;;18.88;10.07;;;;;;;-144.32;100.00;68061.97;10350254;28;20056;-78
2024/01/10 13:39:19;;;;;;;19.77;11.02;;;;;;;-144.32;100.00;68061.97;10360083;28;20062;-77
2024/01/10 13:45:18;;;;;;;19.75;11.70;;;;;;;-144.32;100.00;68061.97;10338009;28;20053;-78
2024/01/10 13:51:17;;;;;;;19.35;10.90;;;;;;;-144.32;100.00;68061.97;10356581;28;20053;-78
2024/01/10 13:57:18;;;;;;;16.73;10.38;;;;;;;-144.32;100.00;68061.97;10354915;28;20053;-79
2024/01/10 14:03:17;;;;;;;17.85;11.05;;;;;;;-144.32;100.00;68061.97;10358130;28;20069;-77
2024/01/10 14:09:17;;;;;;;18.50;10.07;;;;;;;-144.32;100.00;68061.97;10351330;28;20405;-79
2024/01/10 14:15:16;;;;;;;18.75;10.15;;;;;;;-144.32;100.00;68061.97;10339999;28;20100;-78
2024/01/10 14:21:15;;;;;;;21.50;11.20;;;;;;;-144.32;100.00;68061.97;10353369;28;20057;-80
2024/01/10 14:27:14;;;;;;;19.88;11.50;;;;;;;-144.32;100.00;68061.97;10357064;28;20535;-77
2024/01/10 14:33:13;;;;;;;21.38;11.13;;;;;;;-144.32;100.00;68061.97;10367765;28;20056;-79
2024/01/10 14:39:12;;;;;;;19.02;10.60;;;;;;;-144.32;100.00;68061.97;10375106;28;20041;-80
2024/01/10 14:45:12;;;;;;;16.10;10.15;;;;;;;-144.32;100.00;68061.97;10382886;28;20057;-81
2024/01/10 14:51:11;;;;;;;18.50;10.93;;;;;;;-144.32;100.00;68061.97;10364664;28;20068;-80
2024/01/10 14:57:11;;;;;;;16.63;9.27;;;;;;;-144.32;100.00;68061.97;10334635;28;20069;-80
2024/01/10 15:03:10;;;;;;;20.98;10.90;;;;;;;-144.32;100.00;68061.97;10350153;28;20543;-79
2024/01/10 15:09:09;;;;;;;21.50;11.25;;;;;;;-144.32;100.00;68061.97;10345285;28;20057;-78
2024/01/10 15:15:09;;;;;;;23.55;12.77;;;;;;;-144.32;100.00;68061.97;10340939;28;21298;-80
2024/01/10 15:21:08;;;;;;;18.05;10.35;;;;;;;-144.32;100.00;68061.97;10340152;28;20063;-75
2024/01/10 15:27:09;;;;;;;22.95;10.95;;;;;;;-144.32;100.00;68061.97;10339162;28;20167;-78
2024/01/10 15:33:09;;;;;;;21.58;10.52;;;;;;;-144.32;100.00;68061.97;10341878;28;20056;-78
2024/01/10 15:39:08;;;;;;;18.80;11.32;;;;;;;-144.32;100.00;68061.97;10351148;28;20057;-79
2024/01/10 15:45:14;;;;;;;18.33;10.15;;;;;;;-144.32;100.00;68061.97;10352445;28;20080;-76
2024/01/10 15:51:13;;;;;;;17.60;10.90;;;;;;;-144.32;100.00;68061.97;10349604;28;20050;-78
2024/01/10 15:57:12;;;;;;;32.70;16.90;;;;;;;-144.32;100.00;68061.97;10361253;28;20069;-75
2024/01/10 16:03:12;;;;;;;28.80;15.68;;;;;;;-144.32;100.00;68061.97;10339591;28;20433;-79
2024/01/10 16:09:12;;;;;;;20.35;10.70;;;;;;;-144.32;100.00;68061.97;10350871;28;20402;-80
2024/01/10 16:15:12;;;;;;;18.35;10.65;;;;;;;-144.32;100.00;68061.97;10352514;28;20469;-77
2024/01/10 16:21:11;;;;;;;18.60;10.60;;;;;;;-144.32;100.00;68061.97;10316057;28;20582;-80
2024/01/10 16:27:10;;;;;;;20.98;11.23;;;;;;;-144.32;100.00;68061.97;10351797;28;20092;-80
2024/01/10 16:33:09;;;;;;;25.95;12.27;;;;;;;-144.32;100.00;68061.97;10355629;28;20073;-78
2024/01/10 16:39:08;;;;;;;20.30;11.10;;;;;;;-144.32;100.00;68061.97;10358854;28;20050;-77
2024/01/10 16:45:08;;;;;;;20.58;10.65;;;;;;;-144.32;100.00;68061.97;10356450;28;20053;-79
2024/01/10 16:51:09;;;;;;;27.75;12.50;;;;;;;-144.32;100.00;68061.97;10351911;28;20482;-76
2024/01/10 16:57:08;;;;;;;25.48;11.70;;;;;;;-144.32;100.00;68061.97;10356473;28;20101;-77
2024/01/10 17:03:07;;;;;;;23.27;11.35;;;;;;;-144.32;100.00;68061.97;10356317;28;20061;-77
2024/01/10 17:09:07;;;;;;;18.95;11.00;;;;;;;-144.32;100.00;68061.97;10351773;28;20863;-78
2024/01/10 17:15:06;;;;;;;19.48;11.25;;;;;;;-144.32;100.00;68061.97;10342927;28;20058;-79
2024/01/10 17:21:07;;;;;;;20.23;10.48;;;;;;;-144.32;100.00;68061.97;10348059;28;20583;-79
2024/01/10 17:27:06;;;;;;;18.08;10.90;;;;;;;-144.32;100.00;68061.97;10349759;28;20065;-77
2024/01/10 17:33:08;;;;;;;19.33;11.48;;;;;;;-144.32;100.00;68061.97;10336276;28;20744;-79
2024/01/10 17:39:08;;;;;;;21.27;11.52;;;;;;;-144.32;100.00;68061.97;10372528;28;20050;-80
2024/01/10 17:45:07;;;;;;;20.75;11.65;;;;;;;-144.32;100.00;68061.97;10366178;28;20064;-78
2024/01/10 17:51:07;;;;;;;27.85;13.73;;;;;;;-144.32;100.00;68061.97;10381112;28;20155;-77
2024/01/10 17:57:06;;;;;;;23.58;12.40;;;;;;;-144.32;100.00;68061.97;10369609;28;20054;-80
2024/01/10 18:03:04;;;;;;;22.67;13.13;;;;;;;-144.32;100.00;68061.97;10351854;28;20065;-78
2024/01/10 18:09:04;;;;;;;28.42;13.77;;;;;;;-144.32;100.00;68061.97;10341522;28;20702;-77
2024/01/10 18:15:04;;;;;;;18.95;11.07;;;;;;;-144.32;100.00;68061.97;10352322;28;20657;-76
2024/01/10 18:21:05;;;;;;;22.15;10.63;;;;;;;-144.32;100.00;68061.97;10346726;28;20092;-78
2024/01/10 18:27:04;;;;;;;24.65;11.13;;;;;;;-144.32;100.00;68061.97;10356814;28;20498;-78
2024/01/10 18:33:05;;;;;;;22.27;11.43;;;;;;;-144.32;100.00;68061.97;10345668;28;20053;-78
2024/01/10 18:39:04;;;;;;;20.77;11.23;;;;;;;-144.32;100.00;68061.97;10348236;28;20357;-76
2024/01/10 18:45:03;;;;;;;22.40;10.95;;;;;;;-144.32;100.00;68061.97;10345469;28;20054;-76
2024/01/10 18:51:02;;;;;;;25.05;12.35;;;;;;;-144.32;100.00;68061.97;10347378;28;20478;-78
2024/01/10 18:57:04;;;;;;;25.20;13.38;;;;;;;-144.32;100.00;68061.97;10351617;28;20108;-77
2024/01/10 19:03:03;;;;;;;22.70;11.75;;;;;;;-144.32;100.00;68061.97;10352326;28;20111;-81
2024/01/10 19:09:02;;;;;;;35.33;17.83;;;;;;;-144.32;100.00;68061.97;10356713;28;20050;-78
2024/01/10 19:15:03;;;;;;;34.70;18.05;;;;;;;-144.32;100.00;68061.97;10363491;28;20054;-81
2024/01/10 19:21:04;;;;;;;31.17;13.93;;;;;;;-144.32;100.00;68061.97;10358249;28;20140;-81
2024/01/10 19:27:04;;;;;;;27.33;13.85;;;;;;;-144.32;100.00;68061.97;10338093;28;20065;-78
2024/01/10 19:33:06;;;;;;;21.58;13.05;;;;;;;-144.32;100.00;68061.97;10358954;28;20066;-82
2024/01/10 19:39:05;;;;;;;29.15;13.82;;;;;;;-144.32;100.00;68061.97;10355506;28;20078;-81
2024/01/10 19:45:07;;;;;;;21.85;12.50;;;;;;;-144.32;100.00;68061.97;10349482;28;20053;-78
2024/01/10 19:51:06;;;;;;;24.35;12.50;;;;;;;-144.32;100.00;68061.97;10357510;28;20172;-78
2024/01/10 19:57:05;;;;;;;27.55;13.88;;;;;;;-144.32;100.00;68061.97;10358893;28;20058;-77
2024/01/10 20:03:04;;;;;;;23.60;12.27;;;;;;;-144.32;100.00;68061.97;10353153;28;20050;-78
2024/01/10 20:09:03;;;;;;;20.05;11.25;;;;;;;-144.32;100.00;68061.97;10347567;28;20132;-80
2024/01/10 20:15:03;;;;;;;26.45;12.88;;;;;;;-144.32;100.00;68061.97;10352379;28;20054;-79
2024/01/10 20:21:02;;;;;;;22.17;12.13;;;;;;;-144.32;100.00;68061.97;10348715;28;20065;-79
2024/01/10 20:27:03;;;;;;;21.50;12.65;;;;;;;-144.32;100.00;68061.97;10351284;28;20065;-78
2024/01/10 20:33:02;;;;;;;24.38;13.48;;;;;;;-144.32;100.00;68061.97;10345907;28;20061;-76
2024/01/10 20:39:03;;;;;;;27.48;14.63;;;;;;;-144.32;100.00;68061.97;10343573;28;20054;-76
2024/01/10 20:45:04;;;;;;;27.75;14.52;;;;;;;-144.32;100.00;68061.97;10351655;28;20045;-79
2024/01/10 20:51:04;;;;;;;23.60;12.95;;;;;;;-144.32;100.00;68061.97;10338476;28;20144;-78
2024/01/10 20:57:09;;;;;;;28.20;13.77;;;;;;;-144.32;100.00;68061.97;10366744;28;20045;-78
2024/01/10 21:03:08;;;;;;;23.88;14.25;;;;;;;-144.32;100.00;68061.97;10388160;28;20045;-77
2024/01/10 21:09:07;;;;;;;32.58;14.52;;;;;;;-144.32;100.00;68061.97;10362929;28;20053;-77
2024/01/10 21:15:06;;;;;;;27.15;15.43;;;;;;;-144.32;100.00;68061.97;10339113;28;20084;-80
2024/01/10 21:21:06;;;;;;;30.08;14.52;;;;;;;-144.32;100.00;68061.97;10352163;28;20057;-82
2024/01/10 21:27:05;;;;;;;34.95;15.75;;;;;;;-144.32;100.00;68061.97;10356001;28;21545;-79
2024/01/10 21:33:04;;;;;;;28.25;14.30;;;;;;;-144.32;100.00;68061.97;10336850;28;20069;-80
2024/01/10 21:39:04;;;;;;;24.15;14.05;;;;;;;-144.32;100.00;68061.97;10347714;28;20060;-76
2024/01/10 21:45:04;;;;;;;28.40;14.60;;;;;;;-144.32;100.00;68061.97;10352491;28;20537;-76
2024/01/10 21:51:03;;;;;;;25.10;14.13;;;;;;;-144.32;100.00;68061.97;10358796;28;20053;-78
2024/01/10 21:57:02;;;;;;;29.33;14.20;;;;;;;-144.32;100.00;68061.97;10353803;28;20052;-76
2024/01/10 22:03:02;;;;;;;30.60;15.35;;;;;;;-144.32;100.00;68061.97;10355617;28;20074;-76
2024/01/10 22:09:01;;;;;;;29.33;15.02;;;;;;;-144.32;100.00;68061.97;10363920;28;20045;-79
2024/01/10 22:15:00;;;;;;;27.02;15.45;;;;;;;-144.32;100.00;68061.97;10341804;28;20599;-78
2024/01/10 22:21:00;;;;;;;29.77;15.82;;;;;;;-144.32;100.00;68061.97;10356207;28;20073;-77
2024/01/10 22:26:59;;;;;;;32.92;15.93;;;;;;;-144.32;100.00;68061.97;10355826;28;20065;-78
2024/01/10 22:32:59;;;;;;;29.55;15.55;;;;;;;-144.32;100.00;68061.97;10332789;28;20054;-82
2024/01/10 22:38:58;;;;;;;31.67;15.98;;;;;;;-144.32;100.00;68061.97;10360272;28;20053;-77
2024/01/10 22:44:58;;;;;;;33.90;16.75;;;;;;;-144.32;100.00;68061.97;10370895;28;20102;-78
2024/01/10 22:50:56;;;;;;;34.35;16.48;;;;;;;-144.32;100.00;68061.97;10358428;28;20054;-80
2024/01/10 22:56:55;;;;;;;28.83;15.93;;;;;;;-144.32;100.00;68061.97;10350438;28;20768;-77
2024/01/10 23:02:54;;;;;;;32.42;16.25;;;;;;;-144.32;100.00;68061.97;10353691;28;20077;-80
2024/01/10 23:08:54;;;;;;;33.47;17.70;;;;;;;-144.32;100.00;68061.97;10351256;28;20058;-79
2024/01/10 23:14:53;;;;;;;33.70;16.55;;;;;;;-144.32;100.00;68061.97;10347042;28;20448;-79
2024/01/10 23:20:52;;;;;;;36.45;17.75;;;;;;;-144.32;100.00;68061.97;10349540;28;20064;-80
2024/01/10 23:26:52;;;;;;;32.33;16.50;;;;;;;-144.32;100.00;68061.97;10344637;28;20068;-80
2024/01/10 23:32:51;;;;;;;29.75;16.95;;;;;;;-144.32;100.00;68061.97;10343637;28;20071;-79
2024/01/10 23:38:50;;;;;;;34.33;17.52;;;;;;;-144.32;100.00;68061.97;10352007;28;20054;-81
2024/01/10 23:44:49;;;;;;;36.08;17.00;;;;;;;-144.32;100.00;68061.97;10354714;28;20057;-79
2024/01/10 23:50:48;;;;;;;34.75;17.63;;;;;;;-144.32;100.00;68061.97;10351453;28;20069;-77
2024/01/10 23:56:47;;;;;;;35.85;17.83;;;;;;;-144.32;100.00;68061.97;10346514;28;20056;-79
